Flight Track Log - Related Links

Times and Time Zones

All times are in EDT time to prevent confusion due to time zone crossing. See the DAL6234 flight status page for this flight to view local times or setup timezone preferences in your user account.

Time Position Orientation Groundspeed Altitude Reporting Facility
EDT Latitude Longitude Course Direction KTS MPH feet Rate Location/Type
Tue 05:59:52 AM 42.9500 -71.4167 22° Northeast 170 196 1,000  Level KA90
Tue 06:01:04 AM 43.0119 -71.3817 22° Northeast 213 245 3,600 2,436 Climbing Boston Center
Tue 06:02:05 AM 43.0611 -71.4153 333° Northwest 239 275 6,400 2,380 Climbing Boston Center
Tue 06:03:05 AM 43.0617 -71.5147 270° West 274 315 8,400 2,430 Climbing Boston Center
Tue 06:04:06 AM 43.0594 -71.6350 269° West 295 339 11,300 2,678 Climbing Boston Center
Tue 06:05:06 AM 43.0556 -71.7467 267° West 296 341 13,800 2,380 Climbing Boston Center
Tue 06:06:07 AM 43.0522 -71.8675 268° West 316 364 16,100 2,115 Climbing Boston Center
Tue 06:07:08 AM 43.0481 -71.9889 267° West 318 366 18,100 1,884 Climbing Boston Center
Tue 06:08:08 AM 43.0447 -72.1086 268° West 321 369 19,900 1,785 Climbing Boston Center
Tue 06:09:09 AM 43.0400 -72.2364 267° West 333 383 21,700 1,033 Climbing Boston Center
Tue 06:10:10 AM 43.0353 -72.3500 267° West 336 387 22,000 149 Climbing Boston Center
Tue 06:11:10 AM 43.0311 -72.4825 268° West 345 397 22,000  Level Boston Center
Tue 06:12:11 AM 43.0250 -72.6328 267° West 347 399 22,000  Level Boston Center
Tue 06:13:12 AM 43.0200 -72.7636 267° West 347 399 22,000  Level Boston Center
Tue 06:14:12 AM 43.0142 -72.8919 266° West 346 398 22,000  Level Boston Center
Tue 06:15:13 AM 43.0094 -73.0211 267° West 342 394 22,000  Level Boston Center
Tue 06:16:14 AM 43.0028 -73.1522 266° West 342 394 22,000 -49 Level Boston Center
Tue 06:17:15 AM 42.9964 -73.2850 266° West 345 397 21,900 -541 Descending Boston Center
Tue 06:18:16 AM 42.9319 -73.3658 223° Southwest 337 388 20,900 -992 Descending Boston Center
Tue 06:19:16 AM 42.8411 -73.3758 185° South 328 377 19,900 -992 Descending Boston Center
Tue 06:20:17 AM 42.7414 -73.3969 189° South 326 375 18,900 -934 Descending Boston Center
Tue 06:21:18 AM 42.6483 -73.4167 189° South 318 366 18,000 -443 Descending Boston Center
Tue 06:22:19 AM 42.5639 -73.4353 189° South 311 358 18,000 -49 Level Boston Center
Tue 06:23:20 AM 42.4800 -73.4531 189° South 307 353 17,900 -295 Descending Boston Center
Tue 06:24:21 AM 42.3944 -73.4714 189° South 309 356 17,400 -541 Descending Boston Center
Tue 06:25:22 AM 42.3108 -73.4900 189° South 308 354 16,800 -590 Descending Boston Center
Tue 06:26:23 AM 42.2269 -73.5075 189° South 307 353 16,200 -590 Descending Boston Center
Tue 06:27:24 AM 42.1417 -73.5247 189° South 307 353 15,600 -590 Descending Boston Center
Tue 06:28:25 AM 42.0486 -73.5439 189° South 307 353 15,000 -639 Descending Boston Center
Tue 06:29:26 AM 41.9675 -73.5706 194° South 304 350 14,300 -689 Descending Boston Center
Tue 06:30:27 AM 41.8864 -73.6011 196° South 303 349 13,600 -689 Descending Boston Center
Tue 06:31:28 AM 41.8050 -73.6311 195° South 303 349 12,900 -683 Descending Boston Center
Tue 06:32:30 AM 41.7264 -73.6597 195° South 297 342 12,200 -732 Descending Boston Center
Tue 06:33:31 AM 41.6436 -73.6900 195° South 288 331 11,400 -738 Descending Boston Center
Tue 06:34:32 AM 41.5694 -73.7175 196° South 281 323 10,700 -738 Descending Boston Center
Tue 06:35:33 AM 41.4953 -73.7442 195° South 278 320 9,900 -738 Descending Boston Center
Tue 06:36:34 AM 41.4228 -73.7708 195° South 273 314 9,200 -689 Descending Boston Center
Tue 06:37:35 AM 41.3531 -73.7967 196° South 263 303 8,500 -692 Descending Boston Center
Tue 06:38:44 AM 41.2833 -73.7500 153° Southeast 260 299 7,700 -698 Descending New York TRACON
Tue 06:39:44 AM 41.2167 -73.6833 143° Southeast 270 311 7,000 -722 Descending New York TRACON
Tue 06:40:32 AM 41.1667 -73.6500 153° Southeast 263 303 6,400 -667 Descending New York TRACON
Tue 06:41:32 AM 41.1167 -73.6000 143° Southeast 265 305 5,800 -632 Descending New York TRACON
Tue 06:42:26 AM 41.0500 -73.6500 209° Southwest 269 310 5,200 -632 Descending New York TRACON
Tue 06:43:26 AM 41.0000 -73.7000 217° Southwest 264 304 4,600 -900 Descending New York TRACON
Tue 06:44:26 AM 40.9333 -73.7500 210° Southwest 253 291 3,400 -1,150 Descending New York TRACON
Tue 06:45:26 AM 40.8833 -73.7833 207° Southwest 209 241 2,300 -1,000 Descending New York TRACON
Tue 06:46:26 AM 40.8500 -73.8167 217° Southwest 133 153 1,400 -800 Descending New York TRACON
Tue 06:47:26 AM 40.8167 -73.8500 217° Southwest 138 159 700 -700 Descending New York TRACON
Tue 06:49:00 AM 40.7772 -73.8726 180° South  Level Estimated
Tue 06:56:00 AM 40.7772 -73.8726 180° South  Level Estimated
Tue 06:57:00 AM 40.7772 -73.8726 180° South  Level Estimated

Login

Don't have an account? Register now (free) for customized features, flight alerts, and more!